sensor_id;sensor_type;location;lat;lon;timestamp;P1;durP1;ratioP1;P2;durP2;ratioP2
67508;SDS011;54354;44.724;11.284;2023-10-31T00:01:14;14.00;;;3.25;;
67508;SDS011;54354;44.724;11.284;2023-10-31T00:03:39;7.22;;;2.55;;
67508;SDS011;54354;44.724;11.284;2023-10-31T00:06:05;8.07;;;2.45;;
67508;SDS011;54354;44.724;11.284;2023-10-31T00:08:31;8.05;;;2.65;;
67508;SDS011;54354;44.724;11.284;2023-10-31T00:10:57;10.57;;;2.80;;
67508;SDS011;54354;44.724;11.284;2023-10-31T00:13:22;9.52;;;2.72;;
67508;SDS011;54354;44.724;11.284;2023-10-31T00:15:48;10.60;;;2.60;;
67508;SDS011;54354;44.724;11.284;2023-10-31T00:18:13;7.55;;;2.33;;
67508;SDS011;54354;44.724;11.284;2023-10-31T00:20:39;9.77;;;2.40;;
67508;SDS011;54354;44.724;11.284;2023-10-31T00:23:04;7.65;;;2.75;;
67508;SDS011;54354;44.724;11.284;2023-10-31T00:25:30;9.70;;;2.70;;
67508;SDS011;54354;44.724;11.284;2023-10-31T00:27:55;11.30;;;2.60;;
67508;SDS011;54354;44.724;11.284;2023-10-31T00:30:21;12.52;;;2.58;;
67508;SDS011;54354;44.724;11.284;2023-10-31T00:32:46;6.85;;;2.45;;
67508;SDS011;54354;44.724;11.284;2023-10-31T00:35:12;8.35;;;2.47;;
67508;SDS011;54354;44.724;11.284;2023-10-31T00:37:38;8.55;;;2.67;;
67508;SDS011;54354;44.724;11.284;2023-10-31T00:40:05;10.43;;;2.85;;
67508;SDS011;54354;44.724;11.284;2023-10-31T00:42:32;9.82;;;2.75;;
67508;SDS011;54354;44.724;11.284;2023-10-31T00:44:58;8.95;;;3.17;;
67508;SDS011;54354;44.724;11.284;2023-10-31T00:47:24;10.90;;;3.25;;
67508;SDS011;54354;44.724;11.284;2023-10-31T00:49:50;11.05;;;2.92;;
67508;SDS011;54354;44.724;11.284;2023-10-31T00:52:15;11.65;;;3.08;;
67508;SDS011;54354;44.724;11.284;2023-10-31T00:54:41;11.52;;;2.92;;
67508;SDS011;54354;44.724;11.284;2023-10-31T00:57:07;8.43;;;2.78;;
67508;SDS011;54354;44.724;11.284;2023-10-31T00:59:32;11.70;;;2.78;;
67508;SDS011;54354;44.724;11.284;2023-10-31T01:01:58;10.70;;;2.58;;
67508;SDS011;54354;44.724;11.284;2023-10-31T01:04:23;10.68;;;2.80;;
67508;SDS011;54354;44.724;11.284;2023-10-31T01:06:50;11.77;;;3.17;;
67508;SDS011;54354;44.724;11.284;2023-10-31T01:09:16;9.02;;;2.90;;
67508;SDS011;54354;44.724;11.284;2023-10-31T01:11:42;9.73;;;2.55;;
67508;SDS011;54354;44.724;11.284;2023-10-31T01:14:07;7.97;;;2.60;;
67508;SDS011;54354;44.724;11.284;2023-10-31T01:16:33;9.90;;;2.67;;
67508;SDS011;54354;44.724;11.284;2023-10-31T01:18:58;8.38;;;2.78;;
67508;SDS011;54354;44.724;11.284;2023-10-31T01:21:24;7.82;;;2.40;;
67508;SDS011;54354;44.724;11.284;2023-10-31T01:23:49;7.68;;;2.50;;
67508;SDS011;54354;44.724;11.284;2023-10-31T01:26:15;9.65;;;2.15;;
67508;SDS011;54354;44.724;11.284;2023-10-31T01:28:40;7.95;;;2.63;;
67508;SDS011;54354;44.724;11.284;2023-10-31T01:31:06;6.57;;;2.50;;
67508;SDS011;54354;44.724;11.284;2023-10-31T01:33:31;9.05;;;2.70;;
67508;SDS011;54354;44.724;11.284;2023-10-31T01:35:57;9.32;;;2.72;;
67508;SDS011;54354;44.724;11.284;2023-10-31T01:38:23;10.77;;;2.58;;
67508;SDS011;54354;44.724;11.284;2023-10-31T01:40:49;12.77;;;2.65;;
67508;SDS011;54354;44.724;11.284;2023-10-31T01:43:34;8.77;;;2.80;;
67508;SDS011;54354;44.724;11.284;2023-10-31T01:46:01;8.25;;;2.58;;
67508;SDS011;54354;44.724;11.284;2023-10-31T01:48:27;7.93;;;3.10;;
67508;SDS011;54354;44.724;11.284;2023-10-31T01:50:57;9.02;;;2.45;;
67508;SDS011;54354;44.724;11.284;2023-10-31T01:53:24;11.57;;;2.80;;
67508;SDS011;54354;44.724;11.284;2023-10-31T01:55:51;8.20;;;2.50;;
67508;SDS011;54354;44.724;11.284;2023-10-31T01:58:20;8.15;;;2.60;;
67508;SDS011;54354;44.724;11.284;2023-10-31T02:00:50;7.32;;;2.40;;
67508;SDS011;54354;44.724;11.284;2023-10-31T02:03:16;13.82;;;2.40;;
67508;SDS011;54354;44.724;11.284;2023-10-31T02:05:42;10.55;;;2.50;;
67508;SDS011;54354;44.724;11.284;2023-10-31T02:08:09;10.07;;;2.40;;
67508;SDS011;54354;44.724;11.284;2023-10-31T02:10:35;6.45;;;2.20;;
67508;SDS011;54354;44.724;11.284;2023-10-31T02:13:13;8.80;;;2.40;;
67508;SDS011;54354;44.724;11.284;2023-10-31T02:15:43;8.27;;;2.35;;
67508;SDS011;54354;44.724;11.284;2023-10-31T02:18:09;7.75;;;2.15;;
67508;SDS011;54354;44.724;11.284;2023-10-31T02:20:35;8.13;;;2.05;;
67508;SDS011;54354;44.724;11.284;2023-10-31T02:23:01;8.10;;;2.25;;
67508;SDS011;54354;44.724;11.284;2023-10-31T02:25:28;7.25;;;2.00;;
67508;SDS011;54354;44.724;11.284;2023-10-31T02:27:54;4.22;;;1.83;;
67508;SDS011;54354;44.724;11.284;2023-10-31T02:30:20;8.45;;;2.15;;
67508;SDS011;54354;44.724;11.284;2023-10-31T02:32:45;6.13;;;1.73;;
67508;SDS011;54354;44.724;11.284;2023-10-31T02:35:11;5.15;;;1.60;;
67508;SDS011;54354;44.724;11.284;2023-10-31T02:37:37;5.75;;;1.80;;
67508;SDS011;54354;44.724;11.284;2023-10-31T02:40:03;5.75;;;1.92;;
67508;SDS011;54354;44.724;11.284;2023-10-31T02:42:29;8.93;;;1.80;;
67508;SDS011;54354;44.724;11.284;2023-10-31T02:44:55;6.25;;;1.88;;
67508;SDS011;54354;44.724;11.284;2023-10-31T02:47:21;6.00;;;1.77;;
67508;SDS011;54354;44.724;11.284;2023-10-31T02:49:47;6.70;;;1.80;;
67508;SDS011;54354;44.724;11.284;2023-10-31T02:52:12;6.03;;;1.60;;
67508;SDS011;54354;44.724;11.284;2023-10-31T02:54:38;9.88;;;1.67;;
67508;SDS011;54354;44.724;11.284;2023-10-31T02:57:03;7.38;;;1.45;;
67508;SDS011;54354;44.724;11.284;2023-10-31T02:59:29;6.93;;;1.17;;
67508;SDS011;54354;44.724;11.284;2023-10-31T03:01:56;4.32;;;1.25;;
67508;SDS011;54354;44.724;11.284;2023-10-31T03:04:21;5.70;;;1.20;;
67508;SDS011;54354;44.724;11.284;2023-10-31T03:06:47;5.38;;;1.20;;
67508;SDS011;54354;44.724;11.284;2023-10-31T03:09:12;4.88;;;1.10;;
67508;SDS011;54354;44.724;11.284;2023-10-31T03:11:38;4.72;;;1.15;;
67508;SDS011;54354;44.724;11.284;2023-10-31T03:14:04;2.65;;;1.20;;
67508;SDS011;54354;44.724;11.284;2023-10-31T03:16:29;4.72;;;1.27;;
67508;SDS011;54354;44.724;11.284;2023-10-31T03:18:55;4.93;;;1.17;;
67508;SDS011;54354;44.724;11.284;2023-10-31T03:21:21;3.95;;;1.40;;
67508;SDS011;54354;44.724;11.284;2023-10-31T03:23:47;4.22;;;1.13;;
67508;SDS011;54354;44.724;11.284;2023-10-31T03:26:18;4.25;;;1.17;;
67508;SDS011;54354;44.724;11.284;2023-10-31T03:28:44;4.95;;;1.10;;
67508;SDS011;54354;44.724;11.284;2023-10-31T03:31:10;6.90;;;1.13;;
67508;SDS011;54354;44.724;11.284;2023-10-31T03:33:36;4.68;;;1.10;;
67508;SDS011;54354;44.724;11.284;2023-10-31T03:36:02;3.63;;;0.90;;
67508;SDS011;54354;44.724;11.284;2023-10-31T03:38:28;4.22;;;1.30;;
67508;SDS011;54354;44.724;11.284;2023-10-31T03:40:53;7.25;;;1.30;;
67508;SDS011;54354;44.724;11.284;2023-10-31T03:43:19;5.90;;;1.20;;
67508;SDS011;54354;44.724;11.284;2023-10-31T03:45:46;6.00;;;1.40;;
67508;SDS011;54354;44.724;11.284;2023-10-31T03:48:15;3.90;;;1.10;;
67508;SDS011;54354;44.724;11.284;2023-10-31T03:50:41;5.45;;;1.20;;
67508;SDS011;54354;44.724;11.284;2023-10-31T03:53:07;4.53;;;1.02;;
67508;SDS011;54354;44.724;11.284;2023-10-31T03:55:33;6.30;;;1.20;;
67508;SDS011;54354;44.724;11.284;2023-10-31T03:57:59;7.53;;;1.17;;
67508;SDS011;54354;44.724;11.284;2023-10-31T04:00:24;3.95;;;1.10;;
67508;SDS011;54354;44.724;11.284;2023-10-31T04:02:50;8.13;;;1.40;;
67508;SDS011;54354;44.724;11.284;2023-10-31T04:05:15;4.47;;;1.23;;
67508;SDS011;54354;44.724;11.284;2023-10-31T04:07:41;5.60;;;1.20;;
67508;SDS011;54354;44.724;11.284;2023-10-31T04:10:07;6.18;;;1.25;;
67508;SDS011;54354;44.724;11.284;2023-10-31T04:12:33;6.70;;;1.20;;
67508;SDS011;54354;44.724;11.284;2023-10-31T04:14:58;5.38;;;1.10;;
67508;SDS011;54354;44.724;11.284;2023-10-31T04:17:24;3.03;;;0.98;;
67508;SDS011;54354;44.724;11.284;2023-10-31T04:19:50;6.55;;;1.15;;
67508;SDS011;54354;44.724;11.284;2023-10-31T04:22:15;4.82;;;1.30;;
67508;SDS011;54354;44.724;11.284;2023-10-31T04:24:41;6.15;;;1.20;;
67508;SDS011;54354;44.724;11.284;2023-10-31T04:27:06;5.65;;;1.00;;
67508;SDS011;54354;44.724;11.284;2023-10-31T04:29:32;5.43;;;1.10;;
67508;SDS011;54354;44.724;11.284;2023-10-31T04:31:58;5.07;;;1.00;;
67508;SDS011;54354;44.724;11.284;2023-10-31T04:34:23;3.22;;;1.05;;
67508;SDS011;54354;44.724;11.284;2023-10-31T04:36:49;4.68;;;0.90;;
67508;SDS011;54354;44.724;11.284;2023-10-31T04:39:14;3.95;;;1.15;;
67508;SDS011;54354;44.724;11.284;2023-10-31T04:41:40;7.10;;;1.27;;
67508;SDS011;54354;44.724;11.284;2023-10-31T04:44:05;7.07;;;1.00;;
67508;SDS011;54354;44.724;11.284;2023-10-31T04:46:31;4.22;;;0.98;;
67508;SDS011;54354;44.724;11.284;2023-10-31T04:48:57;2.83;;;1.00;;
67508;SDS011;54354;44.724;11.284;2023-10-31T04:51:22;5.82;;;1.10;;
67508;SDS011;54354;44.724;11.284;2023-10-31T04:53:47;6.15;;;1.00;;
67508;SDS011;54354;44.724;11.284;2023-10-31T04:56:13;6.18;;;0.95;;
67508;SDS011;54354;44.724;11.284;2023-10-31T04:58:43;4.70;;;0.90;;
67508;SDS011;54354;44.724;11.284;2023-10-31T05:01:09;3.28;;;1.00;;
67508;SDS011;54354;44.724;11.284;2023-10-31T05:03:36;3.47;;;0.90;;
67508;SDS011;54354;44.724;11.284;2023-10-31T05:06:02;3.63;;;1.20;;
67508;SDS011;54354;44.724;11.284;2023-10-31T05:08:28;5.15;;;0.80;;
67508;SDS011;54354;44.724;11.284;2023-10-31T05:10:55;9.32;;;1.00;;
67508;SDS011;54354;44.724;11.284;2023-10-31T05:13:21;3.30;;;0.80;;
67508;SDS011;54354;44.724;11.284;2023-10-31T05:15:46;3.22;;;0.90;;
67508;SDS011;54354;44.724;11.284;2023-10-31T05:18:12;8.02;;;1.20;;
67508;SDS011;54354;44.724;11.284;2023-10-31T05:20:37;4.78;;;1.00;;
67508;SDS011;54354;44.724;11.284;2023-10-31T05:23:03;5.10;;;1.00;;
67508;SDS011;54354;44.724;11.284;2023-10-31T05:25:28;5.75;;;1.27;;
67508;SDS011;54354;44.724;11.284;2023-10-31T05:27:54;4.32;;;0.90;;
67508;SDS011;54354;44.724;11.284;2023-10-31T05:30:20;3.80;;;1.25;;
67508;SDS011;54354;44.724;11.284;2023-10-31T05:32:46;9.13;;;1.20;;
67508;SDS011;54354;44.724;11.284;2023-10-31T05:35:12;5.25;;;0.80;;
67508;SDS011;54354;44.724;11.284;2023-10-31T05:37:37;4.28;;;1.20;;
67508;SDS011;54354;44.724;11.284;2023-10-31T05:40:03;3.47;;;0.93;;
67508;SDS011;54354;44.724;11.284;2023-10-31T05:42:28;3.40;;;0.95;;
67508;SDS011;54354;44.724;11.284;2023-10-31T05:44:54;5.07;;;0.90;;
67508;SDS011;54354;44.724;11.284;2023-10-31T05:47:20;2.97;;;0.98;;
67508;SDS011;54354;44.724;11.284;2023-10-31T05:49:46;5.70;;;1.00;;
67508;SDS011;54354;44.724;11.284;2023-10-31T05:52:11;4.28;;;0.88;;
67508;SDS011;54354;44.724;11.284;2023-10-31T05:54:37;4.55;;;1.00;;
67508;SDS011;54354;44.724;11.284;2023-10-31T05:57:03;5.28;;;1.40;;
67508;SDS011;54354;44.724;11.284;2023-10-31T05:59:28;4.10;;;1.10;;
67508;SDS011;54354;44.724;11.284;2023-10-31T06:01:54;3.40;;;1.20;;
67508;SDS011;54354;44.724;11.284;2023-10-31T06:04:19;7.35;;;1.70;;
67508;SDS011;54354;44.724;11.284;2023-10-31T06:06:45;5.40;;;1.30;;
67508;SDS011;54354;44.724;11.284;2023-10-31T06:09:10;2.92;;;1.15;;
67508;SDS011;54354;44.724;11.284;2023-10-31T06:11:36;6.72;;;1.25;;
67508;SDS011;54354;44.724;11.284;2023-10-31T06:14:01;5.78;;;1.00;;
67508;SDS011;54354;44.724;11.284;2023-10-31T06:16:27;3.83;;;0.80;;
67508;SDS011;54354;44.724;11.284;2023-10-31T06:18:54;3.85;;;1.00;;
67508;SDS011;54354;44.724;11.284;2023-10-31T06:21:20;1.88;;;0.50;;
67508;SDS011;54354;44.724;11.284;2023-10-31T06:23:45;3.55;;;0.80;;
67508;SDS011;54354;44.724;11.284;2023-10-31T06:26:11;2.50;;;1.10;;
67508;SDS011;54354;44.724;11.284;2023-10-31T06:28:37;2.70;;;1.13;;
67508;SDS011;54354;44.724;11.284;2023-10-31T06:31:03;1.75;;;0.73;;
67508;SDS011;54354;44.724;11.284;2023-10-31T06:33:29;3.05;;;0.70;;
67508;SDS011;54354;44.724;11.284;2023-10-31T06:35:54;4.97;;;0.73;;
67508;SDS011;54354;44.724;11.284;2023-10-31T06:38:20;5.70;;;0.85;;
67508;SDS011;54354;44.724;11.284;2023-10-31T06:40:45;3.42;;;0.60;;
67508;SDS011;54354;44.724;11.284;2023-10-31T06:43:11;3.60;;;0.73;;
67508;SDS011;54354;44.724;11.284;2023-10-31T06:45:37;4.55;;;2.20;;
67508;SDS011;54354;44.724;11.284;2023-10-31T06:48:02;6.22;;;2.95;;
67508;SDS011;54354;44.724;11.284;2023-10-31T06:50:28;6.57;;;3.15;;
67508;SDS011;54354;44.724;11.284;2023-10-31T06:52:54;3.08;;;1.33;;
67508;SDS011;54354;44.724;11.284;2023-10-31T06:55:19;3.15;;;0.90;;
67508;SDS011;54354;44.724;11.284;2023-10-31T06:57:45;3.97;;;0.63;;
67508;SDS011;54354;44.724;11.284;2023-10-31T07:00:11;3.40;;;0.60;;
67508;SDS011;54354;44.724;11.284;2023-10-31T07:02:37;2.40;;;0.40;;
67508;SDS011;54354;44.724;11.284;2023-10-31T07:05:03;1.73;;;0.50;;
67508;SDS011;54354;44.724;11.284;2023-10-31T07:07:29;4.15;;;0.60;;
67508;SDS011;54354;44.724;11.284;2023-10-31T07:09:55;3.63;;;0.60;;
67508;SDS011;54354;44.724;11.284;2023-10-31T07:12:20;2.53;;;0.70;;
67508;SDS011;54354;44.724;11.284;2023-10-31T07:14:46;4.57;;;0.90;;
67508;SDS011;54354;44.724;11.284;2023-10-31T07:17:12;7.07;;;1.00;;
67508;SDS011;54354;44.724;11.284;2023-10-31T07:19:37;2.25;;;0.77;;
67508;SDS011;54354;44.724;11.284;2023-10-31T07:22:03;3.60;;;0.80;;
67508;SDS011;54354;44.724;11.284;2023-10-31T07:24:28;7.22;;;0.80;;
67508;SDS011;54354;44.724;11.284;2023-10-31T07:26:54;2.17;;;0.70;;
67508;SDS011;54354;44.724;11.284;2023-10-31T07:29:20;3.65;;;0.80;;
67508;SDS011;54354;44.724;11.284;2023-10-31T07:31:45;4.28;;;0.70;;
67508;SDS011;54354;44.724;11.284;2023-10-31T07:34:11;4.38;;;0.85;;
67508;SDS011;54354;44.724;11.284;2023-10-31T07:36:37;5.40;;;0.80;;
67508;SDS011;54354;44.724;11.284;2023-10-31T07:39:04;4.82;;;1.17;;
67508;SDS011;54354;44.724;11.284;2023-10-31T07:41:30;5.20;;;0.40;;
67508;SDS011;54354;44.724;11.284;2023-10-31T07:43:55;3.67;;;0.30;;
67508;SDS011;54354;44.724;11.284;2023-10-31T07:46:21;3.22;;;0.30;;
67508;SDS011;54354;44.724;11.284;2023-10-31T07:48:48;1.38;;;0.30;;
67508;SDS011;54354;44.724;11.284;2023-10-31T07:51:14;3.40;;;0.40;;
67508;SDS011;54354;44.724;11.284;2023-10-31T07:53:40;4.43;;;0.30;;
67508;SDS011;54354;44.724;11.284;2023-10-31T07:56:14;5.25;;;0.40;;
67508;SDS011;54354;44.724;11.284;2023-10-31T07:58:40;4.45;;;0.40;;
67508;SDS011;54354;44.724;11.284;2023-10-31T08:01:06;5.78;;;0.28;;
67508;SDS011;54354;44.724;11.284;2023-10-31T08:03:35;3.40;;;0.30;;
67508;SDS011;54354;44.724;11.284;2023-10-31T08:06:03;2.38;;;0.32;;
67508;SDS011;54354;44.724;11.284;2023-10-31T08:08:30;1.98;;;0.30;;
67508;SDS011;54354;44.724;11.284;2023-10-31T08:10:55;1.00;;;0.28;;
67508;SDS011;54354;44.724;11.284;2023-10-31T08:13:22;3.22;;;0.30;;
67508;SDS011;54354;44.724;11.284;2023-10-31T08:15:48;1.60;;;0.40;;
67508;SDS011;54354;44.724;11.284;2023-10-31T08:18:13;4.38;;;0.50;;
67508;SDS011;54354;44.724;11.284;2023-10-31T08:20:38;3.25;;;0.40;;
67508;SDS011;54354;44.724;11.284;2023-10-31T08:23:04;2.40;;;0.30;;
67508;SDS011;54354;44.724;11.284;2023-10-31T08:25:29;1.67;;;0.30;;
67508;SDS011;54354;44.724;11.284;2023-10-31T08:27:55;1.17;;;0.30;;
67508;SDS011;54354;44.724;11.284;2023-10-31T08:30:22;1.33;;;0.20;;
67508;SDS011;54354;44.724;11.284;2023-10-31T08:32:47;1.52;;;0.32;;
67508;SDS011;54354;44.724;11.284;2023-10-31T08:35:13;0.35;;;0.20;;
67508;SDS011;54354;44.724;11.284;2023-10-31T08:37:38;1.40;;;0.40;;
67508;SDS011;54354;44.724;11.284;2023-10-31T08:40:04;0.85;;;0.30;;
67508;SDS011;54354;44.724;11.284;2023-10-31T08:42:30;1.00;;;0.20;;
67508;SDS011;54354;44.724;11.284;2023-10-31T08:44:55;0.50;;;0.22;;
67508;SDS011;54354;44.724;11.284;2023-10-31T08:47:21;1.58;;;0.30;;
67508;SDS011;54354;44.724;11.284;2023-10-31T08:49:47;0.30;;;0.30;;
67508;SDS011;54354;44.724;11.284;2023-10-31T08:52:14;0.80;;;0.20;;
67508;SDS011;54354;44.724;11.284;2023-10-31T08:54:39;1.15;;;0.20;;
67508;SDS011;54354;44.724;11.284;2023-10-31T08:57:05;0.57;;;0.20;;
67508;SDS011;54354;44.724;11.284;2023-10-31T08:59:30;0.50;;;0.20;;
67508;SDS011;54354;44.724;11.284;2023-10-31T09:01:56;0.50;;;0.20;;
67508;SDS011;54354;44.724;11.284;2023-10-31T09:04:21;2.35;;;0.50;;
67508;SDS011;54354;44.724;11.284;2023-10-31T09:06:47;0.63;;;0.32;;
67508;SDS011;54354;44.724;11.284;2023-10-31T09:09:12;1.95;;;0.60;;
67508;SDS011;54354;44.724;11.284;2023-10-31T09:11:38;1.58;;;0.30;;
67508;SDS011;54354;44.724;11.284;2023-10-31T09:14:04;0.85;;;0.20;;
67508;SDS011;54354;44.724;11.284;2023-10-31T09:16:29;2.33;;;0.20;;
67508;SDS011;54354;44.724;11.284;2023-10-31T09:18:55;2.40;;;0.20;;
67508;SDS011;54354;44.724;11.284;2023-10-31T09:21:20;3.15;;;0.20;;
67508;SDS011;54354;44.724;11.284;2023-10-31T09:23:46;3.22;;;0.20;;
67508;SDS011;54354;44.724;11.284;2023-10-31T09:26:12;0.73;;;0.20;;
67508;SDS011;54354;44.724;11.284;2023-10-31T09:28:38;1.77;;;0.20;;
67508;SDS011;54354;44.724;11.284;2023-10-31T09:31:04;0.35;;;0.20;;
67508;SDS011;54354;44.724;11.284;2023-10-31T09:33:30;0.85;;;0.10;;
67508;SDS011;54354;44.724;11.284;2023-10-31T09:35:55;6.72;;;0.40;;
67508;SDS011;54354;44.724;11.284;2023-10-31T09:38:21;3.53;;;0.20;;
67508;SDS011;54354;44.724;11.284;2023-10-31T09:40:46;1.55;;;0.20;;
67508;SDS011;54354;44.724;11.284;2023-10-31T09:43:12;1.80;;;0.20;;
67508;SDS011;54354;44.724;11.284;2023-10-31T09:45:37;2.72;;;0.20;;
67508;SDS011;54354;44.724;11.284;2023-10-31T09:48:03;3.58;;;0.20;;
67508;SDS011;54354;44.724;11.284;2023-10-31T09:50:30;1.80;;;0.20;;
67508;SDS011;54354;44.724;11.284;2023-10-31T09:52:56;0.65;;;0.20;;
67508;SDS011;54354;44.724;11.284;2023-10-31T09:55:22;1.55;;;0.10;;
67508;SDS011;54354;44.724;11.284;2023-10-31T09:57:47;0.93;;;0.20;;
67508;SDS011;54354;44.724;11.284;2023-10-31T10:00:13;9.55;;;0.30;;
67508;SDS011;54354;44.724;11.284;2023-10-31T10:02:39;4.95;;;0.22;;
67508;SDS011;54354;44.724;11.284;2023-10-31T10:05:05;2.38;;;0.20;;
67508;SDS011;54354;44.724;11.284;2023-10-31T10:07:34;2.95;;;0.20;;
67508;SDS011;54354;44.724;11.284;2023-10-31T10:10:00;3.92;;;0.20;;
67508;SDS011;54354;44.724;11.284;2023-10-31T10:12:26;2.28;;;0.28;;
67508;SDS011;54354;44.724;11.284;2023-10-31T10:14:52;5.85;;;0.20;;
67508;SDS011;54354;44.724;11.284;2023-10-31T10:17:20;2.63;;;0.20;;
67508;SDS011;54354;44.724;11.284;2023-10-31T10:19:47;3.43;;;0.20;;
67508;SDS011;54354;44.724;11.284;2023-10-31T10:22:12;3.95;;;0.28;;
67508;SDS011;54354;44.724;11.284;2023-10-31T10:24:40;2.17;;;0.10;;
67508;SDS011;54354;44.724;11.284;2023-10-31T10:27:06;0.45;;;0.10;;
67508;SDS011;54354;44.724;11.284;2023-10-31T10:29:33;6.53;;;0.28;;
67508;SDS011;54354;44.724;11.284;2023-10-31T10:32:00;4.47;;;0.20;;
67508;SDS011;54354;44.724;11.284;2023-10-31T10:34:25;3.20;;;0.20;;
67508;SDS011;54354;44.724;11.284;2023-10-31T10:36:51;0.40;;;0.20;;
67508;SDS011;54354;44.724;11.284;2023-10-31T10:39:19;2.95;;;0.20;;
67508;SDS011;54354;44.724;11.284;2023-10-31T10:41:52;1.60;;;0.20;;
67508;SDS011;54354;44.724;11.284;2023-10-31T10:44:23;4.43;;;0.20;;
67508;SDS011;54354;44.724;11.284;2023-10-31T10:46:56;0.82;;;0.10;;
67508;SDS011;54354;44.724;11.284;2023-10-31T10:49:23;2.15;;;0.47;;
67508;SDS011;54354;44.724;11.284;2023-10-31T10:51:58;4.38;;;0.20;;
67508;SDS011;54354;44.724;11.284;2023-10-31T10:54:34;0.93;;;0.20;;
67508;SDS011;54354;44.724;11.284;2023-10-31T10:57:20;4.57;;;0.20;;
67508;SDS011;54354;44.724;11.284;2023-10-31T10:59:55;0.85;;;0.10;;
67508;SDS011;54354;44.724;11.284;2023-10-31T11:02:26;1.60;;;0.10;;
67508;SDS011;54354;44.724;11.284;2023-10-31T11:04:54;3.10;;;0.20;;
67508;SDS011;54354;44.724;11.284;2023-10-31T11:07:20;2.28;;;0.15;;
67508;SDS011;54354;44.724;11.284;2023-10-31T11:09:47;1.48;;;0.20;;
67508;SDS011;54354;44.724;11.284;2023-10-31T11:12:14;0.50;;;0.10;;
67508;SDS011;54354;44.724;11.284;2023-10-31T11:14:41;1.42;;;0.10;;
67508;SDS011;54354;44.724;11.284;2023-10-31T11:17:24;5.30;;;0.28;;
67508;SDS011;54354;44.724;11.284;2023-10-31T11:19:53;0.50;;;0.20;;
67508;SDS011;54354;44.724;11.284;2023-10-31T11:22:20;0.20;;;0.17;;
67508;SDS011;54354;44.724;11.284;2023-10-31T11:24:47;3.15;;;0.20;;
67508;SDS011;54354;44.724;11.284;2023-10-31T11:27:14;0.68;;;0.30;;
67508;SDS011;54354;44.724;11.284;2023-10-31T11:29:39;0.75;;;0.10;;
67508;SDS011;54354;44.724;11.284;2023-10-31T11:32:11;2.28;;;0.20;;
67508;SDS011;54354;44.724;11.284;2023-10-31T11:34:41;0.77;;;0.10;;
67508;SDS011;54354;44.724;11.284;2023-10-31T11:40:14;0.85;;;0.13;;
67508;SDS011;54354;44.724;11.284;2023-10-31T11:42:53;5.85;;;0.20;;
67508;SDS011;54354;44.724;11.284;2023-10-31T11:45:35;1.25;;;0.20;;
67508;SDS011;54354;44.724;11.284;2023-10-31T11:48:07;0.85;;;0.20;;
67508;SDS011;54354;44.724;11.284;2023-10-31T11:50:33;0.35;;;0.10;;
67508;SDS011;54354;44.724;11.284;2023-10-31T11:53:09;2.50;;;0.10;;
67508;SDS011;54354;44.724;11.284;2023-10-31T11:55:39;0.60;;;0.20;;
67508;SDS011;54354;44.724;11.284;2023-10-31T11:58:19;1.15;;;0.20;;
67508;SDS011;54354;44.724;11.284;2023-10-31T12:00:50;0.00;;;0.00;;
67508;SDS011;54354;44.724;11.284;2023-10-31T12:03:18;0.60;;;0.10;;
67508;SDS011;54354;44.724;11.284;2023-10-31T12:05:51;1.85;;;0.10;;
67508;SDS011;54354;44.724;11.284;2023-10-31T12:08:27;0.45;;;0.10;;
67508;SDS011;54354;44.724;11.284;2023-10-31T12:11:13;1.08;;;0.10;;
67508;SDS011;54354;44.724;11.284;2023-10-31T12:13:54;0.20;;;0.20;;
67508;SDS011;54354;44.724;11.284;2023-10-31T12:16:27;1.08;;;0.20;;
67508;SDS011;54354;44.724;11.284;2023-10-31T12:18:56;0.10;;;0.10;;
67508;SDS011;54354;44.724;11.284;2023-10-31T12:21:35;1.17;;;0.20;;
67508;SDS011;54354;44.724;11.284;2023-10-31T12:24:05;1.55;;;0.10;;
67508;SDS011;54354;44.724;11.284;2023-10-31T12:31:34;1.20;;;0.20;;
67508;SDS011;54354;44.724;11.284;2023-10-31T12:36:48;0.47;;;0.10;;
67508;SDS011;54354;44.724;11.284;2023-10-31T12:39:16;0.13;;;0.13;;
67508;SDS011;54354;44.724;11.284;2023-10-31T12:44:36;1.58;;;0.17;;
67508;SDS011;54354;44.724;11.284;2023-10-31T12:47:04;0.20;;;0.10;;
67508;SDS011;54354;44.724;11.284;2023-10-31T12:49:33;0.45;;;0.10;;
67508;SDS011;54354;44.724;11.284;2023-10-31T12:52:04;0.20;;;0.20;;
67508;SDS011;54354;44.724;11.284;2023-10-31T12:54:33;0.60;;;0.10;;
67508;SDS011;54354;44.724;11.284;2023-10-31T12:57:09;0.20;;;0.10;;
67508;SDS011;54354;44.724;11.284;2023-10-31T12:59:35;0.10;;;0.10;;
67508;SDS011;54354;44.724;11.284;2023-10-31T13:04:31;1.75;;;0.17;;
67508;SDS011;54354;44.724;11.284;2023-10-31T13:07:07;3.15;;;0.15;;
67508;SDS011;54354;44.724;11.284;2023-10-31T13:09:36;0.20;;;0.10;;
67508;SDS011;54354;44.724;11.284;2023-10-31T13:12:04;0.28;;;0.20;;
67508;SDS011;54354;44.724;11.284;2023-10-31T13:14:36;0.88;;;0.20;;
67508;SDS011;54354;44.724;11.284;2023-10-31T13:17:05;0.13;;;0.10;;
67508;SDS011;54354;44.724;11.284;2023-10-31T13:19:31;0.20;;;0.20;;
67508;SDS011;54354;44.724;11.284;2023-10-31T13:21:57;0.52;;;0.13;;
67508;SDS011;54354;44.724;11.284;2023-10-31T13:24:22;0.20;;;0.20;;
67508;SDS011;54354;44.724;11.284;2023-10-31T13:26:50;2.08;;;0.15;;
67508;SDS011;54354;44.724;11.284;2023-10-31T13:29:18;0.22;;;0.10;;
67508;SDS011;54354;44.724;11.284;2023-10-31T13:31:44;0.38;;;0.20;;
67508;SDS011;54354;44.724;11.284;2023-10-31T13:34:10;0.95;;;0.20;;
67508;SDS011;54354;44.724;11.284;2023-10-31T13:36:42;5.75;;;0.10;;
67508;SDS011;54354;44.724;11.284;2023-10-31T13:46:37;1.50;;;0.20;;
67508;SDS011;54354;44.724;11.284;2023-10-31T13:49:02;1.25;;;0.20;;
67508;SDS011;54354;44.724;11.284;2023-10-31T13:51:28;1.20;;;0.10;;
67508;SDS011;54354;44.724;11.284;2023-10-31T13:53:59;0.20;;;0.20;;
67508;SDS011;54354;44.724;11.284;2023-10-31T13:56:25;3.20;;;0.20;;
67508;SDS011;54354;44.724;11.284;2023-10-31T13:58:51;1.60;;;0.20;;
67508;SDS011;54354;44.724;11.284;2023-10-31T14:01:17;0.50;;;0.30;;
67508;SDS011;54354;44.724;11.284;2023-10-31T14:03:50;0.63;;;0.20;;
67508;SDS011;54354;44.724;11.284;2023-10-31T14:06:16;0.57;;;0.20;;
67508;SDS011;54354;44.724;11.284;2023-10-31T14:08:44;1.65;;;0.20;;
67508;SDS011;54354;44.724;11.284;2023-10-31T14:11:09;3.28;;;0.30;;
67508;SDS011;54354;44.724;11.284;2023-10-31T14:13:36;2.50;;;0.40;;
67508;SDS011;54354;44.724;11.284;2023-10-31T14:16:01;1.50;;;0.47;;
67508;SDS011;54354;44.724;11.284;2023-10-31T14:18:27;2.28;;;0.52;;
67508;SDS011;54354;44.724;11.284;2023-10-31T14:20:53;2.72;;;0.40;;
67508;SDS011;54354;44.724;11.284;2023-10-31T14:23:18;0.45;;;0.30;;
67508;SDS011;54354;44.724;11.284;2023-10-31T14:25:43;1.05;;;0.32;;
67508;SDS011;54354;44.724;11.284;2023-10-31T14:28:09;0.45;;;0.30;;
67508;SDS011;54354;44.724;11.284;2023-10-31T14:30:35;0.88;;;0.50;;
67508;SDS011;54354;44.724;11.284;2023-10-31T14:33:00;3.90;;;0.50;;
67508;SDS011;54354;44.724;11.284;2023-10-31T14:35:26;2.78;;;0.50;;
67508;SDS011;54354;44.724;11.284;2023-10-31T14:37:51;2.67;;;0.40;;
67508;SDS011;54354;44.724;11.284;2023-10-31T14:40:17;2.70;;;0.43;;
67508;SDS011;54354;44.724;11.284;2023-10-31T14:42:42;1.08;;;0.50;;
67508;SDS011;54354;44.724;11.284;2023-10-31T14:45:08;4.60;;;0.68;;
67508;SDS011;54354;44.724;11.284;2023-10-31T14:47:34;1.70;;;0.57;;
67508;SDS011;54354;44.724;11.284;2023-10-31T14:49:59;1.35;;;0.68;;
67508;SDS011;54354;44.724;11.284;2023-10-31T14:52:25;1.20;;;0.40;;
67508;SDS011;54354;44.724;11.284;2023-10-31T14:54:51;4.43;;;0.52;;